KLM38Y LSZH-EHAM
Flight info
| Callsign | KLM38Y |
|---|---|
| Flight time | N/A |
| Altitude | 38000 |
| Route | DEGES Z1 ETAGO DCT HAREM/N0463F370 DCT LOHRE DCT EBIPA/N0465F380 DCT MAPOX DCT NORKU |
| Aircraft | B738/M-SDE2E3FGHIRWXY/LB1 |
Departure
| Time | 2026-02-17 15:56 |
|---|---|
| Airport | Zürich Airport (LSZH) |
Arrival
| Time | N/A |
|---|---|
| Airport | Amsterdam Airport Schiphol (EHAM) |
| Time | Latitude | Longitude | Altitude | Speed | Heading |
|---|---|---|---|---|---|
| 2026-02-17 15:35 | 47.45432 | 8.55747 | 1396 ft | 0 kts | 186° |
| 2026-02-17 15:46 | 47.45433 | 8.55747 | 1235 ft | 2 kts | 186° |
| 2026-02-17 15:46 | 47.45468 | 8.55751 | 1393 ft | 4 kts | 180° |
| 2026-02-17 15:47 | 47.45501 | 8.55742 | 1399 ft | 2 kts | 135° |
| 2026-02-17 15:47 | 47.45508 | 8.55728 | 1409 ft | 2 kts | 109° |
| 2026-02-17 15:47 | 47.45511 | 8.55712 | 1406 ft | 2 kts | 98° |
| 2026-02-17 15:47 | 47.45512 | 8.55697 | 1404 ft | 0 kts | 95° |
| 2026-02-17 15:53 | 47.45511 | 8.55722 | 1409 ft | 7 kts | 94° |
| 2026-02-17 15:53 | 47.45519 | 8.55815 | 1405 ft | 11 kts | 55° |
| 2026-02-17 15:53 | 47.45603 | 8.55854 | 1396 ft | 15 kts | 17° |
| 2026-02-17 15:53 | 47.45630 | 8.55991 | 1398 ft | 15 kts | 97° |
| 2026-02-17 15:54 | 47.45617 | 8.56160 | 1404 ft | 14 kts | 96° |
| 2026-02-17 15:54 | 47.45631 | 8.56256 | 1401 ft | 3 kts | 38° |
| 2026-02-17 15:54 | 47.45671 | 8.56270 | 1396 ft | 9 kts | 8° |
| 2026-02-17 15:55 | 47.45755 | 8.56285 | 1398 ft | 15 kts | 6° |
| 2026-02-17 15:55 | 47.45877 | 8.56303 | 1401 ft | 20 kts | 5° |
| 2026-02-17 15:55 | 47.46030 | 8.56326 | 1407 ft | 23 kts | 7° |
| 2026-02-17 15:55 | 47.46191 | 8.56341 | 1397 ft | 20 kts | 346° |
| 2026-02-17 15:56 | 47.46320 | 8.56185 | 1402 ft | 44 kts | 317° |
| 2026-02-17 15:56 | 47.46724 | 8.55633 | 1400 ft | 112 kts | 317° |
| 2026-02-17 15:56 | 47.47437 | 8.54647 | 1439 ft | 163 kts | 314° |
| 2026-02-17 15:56 | 47.48333 | 8.53599 | 2025 ft | 162 kts | 316° |
| 2026-02-17 15:57 | 47.49178 | 8.52607 | 3015 ft | 153 kts | 315° |
| 2026-02-17 15:57 | 47.50093 | 8.51562 | 3429 ft | 182 kts | 316° |
| 2026-02-17 15:57 | 47.51182 | 8.50365 | 3776 ft | 200 kts | 322° |
| 2026-02-17 15:57 | 47.52314 | 8.49228 | 4604 ft | 192 kts | 310° |
| 2026-02-17 15:58 | 47.53067 | 8.47639 | 5433 ft | 188 kts | 291° |
| 2026-02-17 15:58 | 47.53367 | 8.45791 | 6351 ft | 187 kts | 273° |
| 2026-02-17 15:58 | 47.52207 | 8.41757 | 7181 ft | 249 kts | 231° |
| 2026-02-17 15:59 | 47.50697 | 8.40343 | 7934 ft | 270 kts | 206° |
| 2026-02-17 15:59 | 47.48771 | 8.40050 | 8773 ft | 290 kts | 178° |
| 2026-02-17 15:59 | 47.46849 | 8.41112 | 9707 ft | 305 kts | 151° |
| 2026-02-17 15:59 | 47.45335 | 8.43418 | 10263 ft | 327 kts | 123° |
| 2026-02-17 16:00 | 47.44554 | 8.46700 | 10398 ft | 352 kts | 97° |
| 2026-02-17 16:00 | 47.44343 | 8.50415 | 10597 ft | 375 kts | 90° |
| 2026-02-17 16:00 | 47.44290 | 8.54374 | 10770 ft | 396 kts | 89° |
| 2026-02-17 16:00 | 47.44243 | 8.58532 | 11035 ft | 412 kts | 89° |
| 2026-02-17 16:01 | 47.44147 | 8.62802 | 11588 ft | 420 kts | 90° |
| 2026-02-17 16:01 | 47.44002 | 8.67070 | 12298 ft | 423 kts | 91° |
| 2026-02-17 16:01 | 47.43817 | 8.71420 | 13031 ft | 426 kts | 91° |
| 2026-02-17 16:01 | 47.43607 | 8.75814 | 13725 ft | 431 kts | 91° |
| 2026-02-17 16:02 | 47.43384 | 8.80245 | 14421 ft | 434 kts | 92° |
| 2026-02-17 16:02 | 47.43155 | 8.84708 | 15147 ft | 437 kts | 91° |
| 2026-02-17 16:02 | 47.42689 | 8.93729 | 16514 ft | 444 kts | 91° |
| 2026-02-17 16:03 | 47.42453 | 8.98291 | 17196 ft | 448 kts | 91° |
| 2026-02-17 16:03 | 47.42216 | 9.02900 | 17862 ft | 452 kts | 91° |
| 2026-02-17 16:03 | 47.41977 | 9.07480 | 18437 ft | 455 kts | 90° |
| 2026-02-17 16:03 | 47.41731 | 9.12163 | 18964 ft | 460 kts | 90° |
| 2026-02-17 16:04 | 47.41684 | 9.16879 | 19458 ft | 459 kts | 80° |
| 2026-02-17 16:04 | 47.42257 | 9.21490 | 20006 ft | 455 kts | 68° |
| 2026-02-17 16:04 | 47.43360 | 9.25843 | 20504 ft | 450 kts | 57° |
| 2026-02-17 16:04 | 47.44914 | 9.29841 | 20990 ft | 450 kts | 52° |
| 2026-02-17 16:05 | 47.46541 | 9.33815 | 21492 ft | 454 kts | 52° |
| 2026-02-17 16:05 | 47.48367 | 9.37569 | 21891 ft | 446 kts | 40° |
| 2026-02-17 16:05 | 47.50689 | 9.40510 | 22385 ft | 436 kts | 26° |
| 2026-02-17 16:05 | 47.53319 | 9.42619 | 22883 ft | 425 kts | 14° |
| 2026-02-17 16:06 | 47.56115 | 9.43938 | 23375 ft | 422 kts | 9° |
| 2026-02-17 16:06 | 47.58960 | 9.44994 | 23727 ft | 419 kts | 3° |
| 2026-02-17 16:06 | 47.64681 | 9.45490 | 24472 ft | 416 kts | 355° |
| 2026-02-17 16:07 | 47.67583 | 9.45607 | 24818 ft | 419 kts | 355° |
| 2026-02-17 16:07 | 47.70507 | 9.45756 | 25201 ft | 421 kts | 355° |
| 2026-02-17 16:07 | 47.73438 | 9.45921 | 25583 ft | 422 kts | 356° |
| 2026-02-17 16:07 | 47.76376 | 9.46091 | 25938 ft | 423 kts | 356° |
| 2026-02-17 16:08 | 47.79315 | 9.46259 | 26295 ft | 424 kts | 356° |
| 2026-02-17 16:08 | 47.85210 | 9.46395 | 27034 ft | 423 kts | 354° |
| 2026-02-17 16:08 | 47.88158 | 9.46425 | 27428 ft | 423 kts | 354° |
| 2026-02-17 16:09 | 47.91088 | 9.46493 | 27931 ft | 420 kts | 354° |
| 2026-02-17 16:09 | 47.93962 | 9.46571 | 28400 ft | 417 kts | 354° |
| 2026-02-17 16:09 | 47.96855 | 9.46650 | 28882 ft | 415 kts | 354° |
| 2026-02-17 16:09 | 47.99734 | 9.46725 | 29392 ft | 412 kts | 354° |
| 2026-02-17 16:10 | 48.02571 | 9.46795 | 29882 ft | 410 kts | 354° |
| 2026-02-17 16:10 | 48.05425 | 9.46861 | 30206 ft | 410 kts | 354° |
| 2026-02-17 16:10 | 48.11213 | 9.46984 | 30654 ft | 414 kts | 354° |
| 2026-02-17 16:11 | 48.14084 | 9.47048 | 31035 ft | 412 kts | 354° |
| 2026-02-17 16:11 | 48.16950 | 9.47112 | 31337 ft | 412 kts | 354° |
| 2026-02-17 16:11 | 48.19811 | 9.47175 | 31634 ft | 411 kts | 354° |
| 2026-02-17 16:11 | 48.22671 | 9.47238 | 31969 ft | 410 kts | 354° |
| 2026-02-17 16:12 | 48.25482 | 9.47301 | 32289 ft | 410 kts | 354° |
| 2026-02-17 16:12 | 48.28334 | 9.47362 | 32484 ft | 413 kts | 354° |
| 2026-02-17 16:12 | 48.31226 | 9.47424 | 32715 ft | 413 kts | 354° |
| 2026-02-17 16:12 | 48.34082 | 9.47489 | 33198 ft | 409 kts | 354° |
| 2026-02-17 16:13 | 48.36917 | 9.47555 | 33591 ft | 407 kts | 354° |
| 2026-02-17 16:13 | 48.39755 | 9.47617 | 33762 ft | 409 kts | 354° |
| 2026-02-17 16:13 | 48.42608 | 9.47678 | 33936 ft | 411 kts | 354° |
| 2026-02-17 16:13 | 48.45467 | 9.47741 | 34162 ft | 411 kts | 354° |
| 2026-02-17 16:14 | 48.48325 | 9.47804 | 34406 ft | 411 kts | 354° |
| 2026-02-17 16:14 | 48.51186 | 9.47867 | 34574 ft | 413 kts | 354° |
| 2026-02-17 16:14 | 48.56937 | 9.47996 | 35010 ft | 413 kts | 354° |
| 2026-02-17 16:15 | 48.59808 | 9.48061 | 35225 ft | 413 kts | 354° |
| 2026-02-17 16:15 | 48.62690 | 9.48125 | 35355 ft | 415 kts | 354° |
| 2026-02-17 16:15 | 48.65584 | 9.48189 | 35556 ft | 416 kts | 354° |
| 2026-02-17 16:15 | 48.68472 | 9.48254 | 35798 ft | 415 kts | 354° |
| 2026-02-17 16:16 | 48.71398 | 9.48321 | 35996 ft | 417 kts | 354° |
| 2026-02-17 16:16 | 48.74275 | 9.48384 | 36080 ft | 419 kts | 354° |
| 2026-02-17 16:16 | 48.77154 | 9.48449 | 36263 ft | 419 kts | 354° |
| 2026-02-17 16:16 | 48.80069 | 9.48515 | 36501 ft | 419 kts | 354° |
| 2026-02-17 16:17 | 48.82980 | 9.48583 | 36721 ft | 418 kts | 354° |
| 2026-02-17 16:17 | 48.85895 | 9.48648 | 36897 ft | 419 kts | 354° |
| 2026-02-17 16:17 | 48.88814 | 9.48714 | 37104 ft | 419 kts | 354° |
| 2026-02-17 16:17 | 48.91731 | 9.48781 | 37369 ft | 419 kts | 354° |
| 2026-02-17 16:18 | 48.97603 | 9.48911 | 37538 ft | 424 kts | 355° |
| 2026-02-17 16:19 | 49.06473 | 9.49114 | 37629 ft | 424 kts | 355° |